Time;durP1;ratioP1;P1;durP2;ratioP2;P2;SDS_P1;SDS_P2;PMS_P1;PMS_P2;Temp;Humidity;BMP_temperature;BMP_pressure;BME280_temperature;BME280_humidity;BME280_pressure;Samples;Min_cycle;Max_cycle;Signal;HPM_P1;HPM_P2
2023/02/09 00:01:35;;;;;;;0.40;0.40;;;;;;;;;;5080287;28;20449;-69
2023/02/09 00:04:03;;;;;;;0.70;0.70;;;;;;;;;;5072313;28;20748;-72
2023/02/09 00:06:32;;;;;;;0.40;0.40;;;;;;;;;;5082161;28;20166;-72
2023/02/09 00:09:01;;;;;;;0.30;0.30;;;;;;;;;;5073400;28;20048;-73
2023/02/09 00:14:22;;;;;;;0.60;0.60;;;;;;;;;;5014684;28;20077;-73
2023/02/09 00:16:51;;;;;;;0.73;0.60;;;;;;;;;;5083628;28;20135;-73
2023/02/09 00:19:20;;;;;;;0.65;0.65;;;;;;;;;;5066504;28;20120;-73
2023/02/09 00:21:48;;;;;;;0.30;0.30;;;;;;;;;;5076310;28;20044;-71
2023/02/09 00:24:17;;;;;;;0.40;0.40;;;;;;;;;;5074360;28;20396;-72
2023/02/09 00:26:46;;;;;;;0.30;0.30;;;;;;;;;;5073852;28;20047;-72
2023/02/09 00:29:15;;;;;;;0.20;0.20;;;;;;;;;;5085857;28;20052;-73
2023/02/09 00:31:43;;;;;;;0.30;0.30;;;;;;;;;;5074176;28;20037;-72
2023/02/09 00:34:12;;;;;;;0.40;0.40;;;;;;;;;;5074392;28;21567;-72
2023/02/09 00:36:40;;;;;;;0.38;0.38;;;;;;;;;;5083122;28;20398;-72
2023/02/09 00:39:09;;;;;;;0.52;0.52;;;;;;;;;;5077924;28;20048;-72
2023/02/09 00:44:25;;;;;;;0.40;0.40;;;;;;;;;;5068342;28;20032;-71
2023/02/09 00:46:53;;;;;;;0.30;0.30;;;;;;;;;;5073677;28;20041;-72
2023/02/09 00:49:21;;;;;;;1.25;1.15;;;;;;;;;;5072974;28;20071;-72
2023/02/09 00:51:50;;;;;;;0.30;0.30;;;;;;;;;;5076795;28;20040;-72
2023/02/09 00:54:18;;;;;;;0.40;0.40;;;;;;;;;;5070434;28;20045;-71
2023/02/09 00:56:46;;;;;;;1.17;1.17;;;;;;;;;;5076307;28;20059;-72
2023/02/09 00:59:14;;;;;;;0.30;0.30;;;;;;;;;;5073593;28;20489;-72
2023/02/09 01:01:44;;;;;;;0.38;0.38;;;;;;;;;;5072596;28;20055;-72
2023/02/09 01:04:12;;;;;;;0.50;0.50;;;;;;;;;;5077256;28;20055;-72
2023/02/09 01:06:41;;;;;;;2.28;0.93;;;;;;;;;;5076073;28;20040;-72
2023/02/09 01:09:09;;;;;;;0.40;0.40;;;;;;;;;;5072901;28;20049;-71
2023/02/09 01:11:37;;;;;;;0.45;0.45;;;;;;;;;;5072597;28;20048;-73
2023/02/09 01:14:05;;;;;;;0.38;0.38;;;;;;;;;;5076603;28;20469;-72
2023/02/09 01:16:34;;;;;;;0.50;0.50;;;;;;;;;;5078611;28;20052;-72
2023/02/09 01:19:04;;;;;;;1.70;1.60;;;;;;;;;;5077452;28;20114;-72
2023/02/09 01:21:32;;;;;;;0.50;0.50;;;;;;;;;;5080876;28;20037;-72
2023/02/09 01:24:00;;;;;;;0.35;0.35;;;;;;;;;;5079434;28;20403;-72
2023/02/09 01:26:28;;;;;;;0.40;0.40;;;;;;;;;;5078817;28;20047;-73
2023/02/09 01:28:57;;;;;;;0.45;0.43;;;;;;;;;;5067070;28;20045;-73
2023/02/09 01:31:27;;;;;;;0.40;0.40;;;;;;;;;;5072763;28;20051;-72
2023/02/09 01:33:56;;;;;;;0.50;0.50;;;;;;;;;;5062621;28;20045;-73
2023/02/09 01:36:26;;;;;;;0.32;0.32;;;;;;;;;;5071300;28;20076;-72
2023/02/09 01:38:55;;;;;;;0.50;0.50;;;;;;;;;;5070505;28;20066;-72
2023/02/09 01:41:23;;;;;;;0.73;0.73;;;;;;;;;;5079697;28;20052;-71
2023/02/09 01:43:53;;;;;;;0.40;0.40;;;;;;;;;;5072017;28;20040;-72
2023/02/09 01:46:22;;;;;;;1.40;1.30;;;;;;;;;;5068961;28;20398;-72
2023/02/09 01:48:51;;;;;;;0.40;0.40;;;;;;;;;;5081714;28;20044;-72
2023/02/09 01:51:20;;;;;;;0.25;0.25;;;;;;;;;;5074243;28;20497;-72
2023/02/09 01:53:51;;;;;;;0.30;0.30;;;;;;;;;;5073159;28;20051;-71
2023/02/09 01:56:22;;;;;;;0.40;0.40;;;;;;;;;;5073035;28;20044;-71
2023/02/09 01:58:50;;;;;;;0.50;0.50;;;;;;;;;;5076438;28;20078;-71
2023/02/09 02:01:18;;;;;;;0.40;0.40;;;;;;;;;;5075699;28;20037;-72
2023/02/09 02:03:47;;;;;;;0.68;0.68;;;;;;;;;;5069288;28;20056;-70
2023/02/09 02:06:17;;;;;;;0.40;0.40;;;;;;;;;;5075012;28;20045;-72
2023/02/09 02:08:47;;;;;;;0.30;0.30;;;;;;;;;;5073456;28;20447;-72
2023/02/09 02:11:16;;;;;;;0.50;0.50;;;;;;;;;;5071657;28;20041;-72
2023/02/09 02:13:45;;;;;;;0.38;0.38;;;;;;;;;;5075527;28;20040;-71
2023/02/09 02:16:24;;;;;;;0.85;0.85;;;;;;;;;;5070355;28;20047;-72
2023/02/09 02:19:00;;;;;;;0.40;0.40;;;;;;;;;;5073367;28;20083;-72
2023/02/09 02:21:48;;;;;;;0.40;0.40;;;;;;;;;;5076588;28;20068;-72
2023/02/09 02:24:33;;;;;;;0.30;0.30;;;;;;;;;;5068551;28;20499;-72
2023/02/09 02:27:04;;;;;;;0.60;0.60;;;;;;;;;;5065611;28;20060;-72
2023/02/09 02:29:48;;;;;;;0.32;0.32;;;;;;;;;;5075306;28;20041;-72
2023/02/09 02:32:25;;;;;;;0.30;0.30;;;;;;;;;;5072321;28;20040;-72
2023/02/09 02:34:55;;;;;;;0.40;0.40;;;;;;;;;;5071672;28;20040;-72
2023/02/09 02:37:28;;;;;;;0.35;0.35;;;;;;;;;;5080191;28;20155;-71
2023/02/09 02:39:59;;;;;;;0.45;0.45;;;;;;;;;;5077444;28;20581;-72
2023/02/09 02:42:50;;;;;;;0.40;0.40;;;;;;;;;;5070295;28;20119;-72
2023/02/09 02:45:36;;;;;;;0.32;0.32;;;;;;;;;;5076633;28;20127;-72
2023/02/09 02:48:11;;;;;;;0.88;0.88;;;;;;;;;;5071109;28;20059;-69
2023/02/09 02:50:42;;;;;;;0.30;0.30;;;;;;;;;;5072361;28;20071;-73
2023/02/09 02:53:11;;;;;;;0.40;0.40;;;;;;;;;;5060128;28;20114;-71
2023/02/09 02:55:39;;;;;;;0.40;0.40;;;;;;;;;;5071492;28;20040;-72
2023/02/09 02:58:10;;;;;;;1.30;1.30;;;;;;;;;;5068231;28;20047;-72
2023/02/09 03:00:40;;;;;;;0.40;0.40;;;;;;;;;;5081487;28;20036;-72
2023/02/09 03:03:12;;;;;;;0.30;0.30;;;;;;;;;;5073568;28;20052;-72
2023/02/09 03:05:42;;;;;;;0.40;0.40;;;;;;;;;;5071742;28;20047;-71
2023/02/09 03:08:10;;;;;;;0.60;0.60;;;;;;;;;;5072847;28;20533;-72
2023/02/09 03:10:40;;;;;;;0.40;0.40;;;;;;;;;;5072645;28;20046;-72
2023/02/09 03:13:13;;;;;;;0.60;0.60;;;;;;;;;;5079119;28;20054;-72
2023/02/09 03:15:45;;;;;;;0.30;0.30;;;;;;;;;;5077229;28;20056;-71
2023/02/09 03:18:21;;;;;;;0.60;0.60;;;;;;;;;;5073127;28;20554;-72
2023/02/09 03:20:51;;;;;;;0.22;0.22;;;;;;;;;;5074398;28;20040;-70
2023/02/09 03:23:24;;;;;;;0.32;0.32;;;;;;;;;;5073285;28;20056;-72
2023/02/09 03:25:53;;;;;;;0.30;0.30;;;;;;;;;;5066837;28;20061;-72
2023/02/09 03:28:25;;;;;;;0.30;0.30;;;;;;;;;;5071324;28;20388;-72
2023/02/09 03:30:53;;;;;;;0.20;0.20;;;;;;;;;;5072483;28;20105;-69
2023/02/09 03:33:25;;;;;;;0.85;0.85;;;;;;;;;;5073276;28;20047;-72
2023/02/09 03:35:55;;;;;;;0.35;0.35;;;;;;;;;;5072089;28;20131;-68
2023/02/09 03:38:24;;;;;;;0.40;0.40;;;;;;;;;;5066901;28;20036;-73
2023/02/09 03:40:53;;;;;;;0.40;0.40;;;;;;;;;;5073767;28;20036;-72
2023/02/09 03:44:25;;;;;;;0.30;0.30;;;;;;;;;;5067170;28;20053;-72
2023/02/09 03:46:11;;;;;;;1.10;1.02;;;;;;;;;;5067071;28;20099;-69
2023/02/09 03:48:40;;;;;;;0.55;0.55;;;;;;;;;;5068439;28;20064;-72
2023/02/09 03:51:09;;;;;;;0.60;0.60;;;;;;;;;;5072171;28;20049;-73
2023/02/09 03:53:37;;;;;;;0.40;0.40;;;;;;;;;;5080279;28;20043;-73
2023/02/09 03:56:08;;;;;;;0.50;0.50;;;;;;;;;;5078764;28;20059;-72
2023/02/09 03:58:36;;;;;;;0.38;0.38;;;;;;;;;;5083067;28;20044;-73
2023/02/09 04:01:06;;;;;;;0.40;0.40;;;;;;;;;;5070388;28;20049;-71
2023/02/09 04:03:35;;;;;;;0.40;0.40;;;;;;;;;;5075682;28;20498;-75
2023/02/09 04:06:05;;;;;;;0.35;0.35;;;;;;;;;;5080074;28;20821;-75
2023/02/09 04:08:36;;;;;;;0.30;0.30;;;;;;;;;;5068293;28;20048;-75
2023/02/09 04:11:04;;;;;;;0.40;0.40;;;;;;;;;;5080666;28;20032;-70
2023/02/09 04:13:33;;;;;;;4.25;1.40;;;;;;;;;;5086234;28;20052;-73
2023/02/09 04:16:01;;;;;;;0.65;0.65;;;;;;;;;;5071613;28;20049;-73
2023/02/09 04:18:29;;;;;;;0.30;0.30;;;;;;;;;;5079103;28;20079;-72
2023/02/09 04:20:58;;;;;;;0.60;0.60;;;;;;;;;;5074931;28;20047;-73
2023/02/09 04:23:27;;;;;;;0.30;0.30;;;;;;;;;;5086361;28;20044;-71
2023/02/09 04:25:55;;;;;;;0.40;0.40;;;;;;;;;;5067252;28;20041;-72
2023/02/09 04:28:24;;;;;;;0.40;0.40;;;;;;;;;;5078296;28;20047;-73
2023/02/09 04:30:53;;;;;;;1.65;0.50;;;;;;;;;;5077260;28;20081;-69
2023/02/09 04:33:22;;;;;;;0.65;0.50;;;;;;;;;;5075426;28;20468;-72
2023/02/09 04:35:50;;;;;;;0.50;0.50;;;;;;;;;;5077176;28;20051;-72
2023/02/09 04:38:19;;;;;;;1.27;0.68;;;;;;;;;;5074167;28;20056;-72
2023/02/09 04:40:49;;;;;;;0.40;0.40;;;;;;;;;;5068412;28;20032;-72
2023/02/09 04:43:17;;;;;;;0.40;0.40;;;;;;;;;;5065963;28;20049;-73
2023/02/09 04:45:46;;;;;;;1.33;0.60;;;;;;;;;;5079654;28;20036;-72
2023/02/09 04:48:15;;;;;;;0.63;0.63;;;;;;;;;;5073625;28;20063;-72
2023/02/09 04:50:44;;;;;;;0.82;0.82;;;;;;;;;;5080584;28;20051;-72
2023/02/09 04:53:12;;;;;;;1.20;0.52;;;;;;;;;;5081848;28;20055;-72
2023/02/09 04:55:41;;;;;;;0.40;0.40;;;;;;;;;;5073948;28;20052;-72
2023/02/09 05:00:57;;;;;;;0.40;0.40;;;;;;;;;;5070712;28;20040;-73
2023/02/09 05:03:26;;;;;;;0.50;0.50;;;;;;;;;;5073712;28;20052;-72
2023/02/09 05:05:55;;;;;;;0.40;0.40;;;;;;;;;;5073887;28;20067;-71
2023/02/09 05:08:23;;;;;;;0.60;0.57;;;;;;;;;;5074955;28;20047;-72
2023/02/09 05:10:52;;;;;;;0.70;0.70;;;;;;;;;;5073834;28;20484;-71
2023/02/09 05:13:22;;;;;;;0.40;0.40;;;;;;;;;;5068371;28;20040;-72
2023/02/09 05:15:50;;;;;;;0.38;0.38;;;;;;;;;;5071291;28;20040;-72
2023/02/09 05:18:19;;;;;;;0.38;0.38;;;;;;;;;;5082914;28;20388;-71
2023/02/09 05:20:47;;;;;;;0.52;0.52;;;;;;;;;;5073169;28;20043;-72
2023/02/09 05:23:16;;;;;;;0.40;0.40;;;;;;;;;;5088338;28;20032;-72
2023/02/09 05:25:46;;;;;;;0.30;0.30;;;;;;;;;;5069364;28;20135;-72
2023/02/09 05:28:15;;;;;;;1.58;1.48;;;;;;;;;;5081950;28;20043;-72
2023/02/09 05:30:44;;;;;;;0.70;0.70;;;;;;;;;;5067090;28;20408;-70
2023/02/09 05:33:13;;;;;;;0.30;0.30;;;;;;;;;;5075454;28;20142;-72
2023/02/09 05:35:41;;;;;;;0.57;0.57;;;;;;;;;;5070063;28;20040;-72
2023/02/09 05:38:10;;;;;;;0.47;0.47;;;;;;;;;;5076874;28;20044;-72
2023/02/09 05:40:38;;;;;;;1.65;0.88;;;;;;;;;;5062676;28;20049;-72
2023/02/09 05:43:06;;;;;;;0.40;0.40;;;;;;;;;;5063337;28;20120;-71
2023/02/09 05:45:35;;;;;;;1.33;0.70;;;;;;;;;;5069959;28;20070;-72
2023/02/09 05:48:04;;;;;;;0.50;0.50;;;;;;;;;;5064638;28;20511;-71
2023/02/09 05:50:34;;;;;;;0.32;0.32;;;;;;;;;;5073315;28;20474;-72
2023/02/09 05:53:02;;;;;;;0.40;0.40;;;;;;;;;;5070256;28;20117;-72
2023/02/09 05:55:32;;;;;;;0.55;0.55;;;;;;;;;;5074515;28;20430;-71
2023/02/09 05:58:00;;;;;;;0.30;0.30;;;;;;;;;;5071004;28;20036;-72
2023/02/09 06:00:29;;;;;;;0.40;0.40;;;;;;;;;;5075743;28;20055;-71
2023/02/09 06:02:58;;;;;;;0.82;0.82;;;;;;;;;;5069149;28;20043;-71
2023/02/09 06:05:28;;;;;;;0.40;0.40;;;;;;;;;;5067723;28;20036;-71
2023/02/09 06:07:57;;;;;;;0.65;0.65;;;;;;;;;;5069712;28;20099;-73
2023/02/09 06:10:26;;;;;;;2.25;1.08;;;;;;;;;;5071234;28;20366;-73
2023/02/09 06:12:54;;;;;;;0.40;0.40;;;;;;;;;;5066456;28;20043;-72
2023/02/09 06:15:22;;;;;;;0.30;0.30;;;;;;;;;;5069541;28;20052;-73
2023/02/09 06:17:50;;;;;;;0.43;0.43;;;;;;;;;;5069254;28;20045;-72
2023/02/09 06:20:19;;;;;;;0.50;0.50;;;;;;;;;;5071728;28;20494;-71
2023/02/09 06:22:48;;;;;;;0.30;0.30;;;;;;;;;;5064410;28;20091;-72
2023/02/09 06:25:17;;;;;;;0.40;0.40;;;;;;;;;;5070004;28;20042;-71
2023/02/09 06:27:45;;;;;;;0.30;0.30;;;;;;;;;;5068683;28;20051;-79
2023/02/09 06:30:14;;;;;;;0.70;0.70;;;;;;;;;;5070225;28;20045;-78
2023/02/09 06:32:42;;;;;;;1.00;1.00;;;;;;;;;;5075625;28;20042;-81
2023/02/09 06:35:10;;;;;;;0.40;0.40;;;;;;;;;;5069883;28;20040;-82
2023/02/09 06:37:38;;;;;;;0.40;0.40;;;;;;;;;;5079969;28;20388;-83
2023/02/09 06:40:08;;;;;;;0.45;0.45;;;;;;;;;;5076925;28;20048;-78
2023/02/09 06:42:46;;;;;;;0.40;0.40;;;;;;;;;;5083516;28;20122;-76
2023/02/09 06:45:15;;;;;;;0.40;0.40;;;;;;;;;;5086376;28;20071;-78
2023/02/09 06:47:44;;;;;;;0.30;0.30;;;;;;;;;;5087362;28;20111;-77
2023/02/09 06:50:13;;;;;;;0.85;0.85;;;;;;;;;;5078244;28;20043;-75
2023/02/09 06:52:42;;;;;;;0.77;0.77;;;;;;;;;;5077575;28;20044;-81
2023/02/09 06:55:11;;;;;;;0.40;0.40;;;;;;;;;;5070074;28;20518;-81
2023/02/09 06:57:40;;;;;;;0.50;0.50;;;;;;;;;;5069051;28;20044;-80
2023/02/09 07:00:09;;;;;;;0.47;0.47;;;;;;;;;;5087874;28;20040;-82
2023/02/09 07:02:38;;;;;;;0.43;0.43;;;;;;;;;;5069467;28;20048;-81
2023/02/09 07:05:06;;;;;;;0.40;0.40;;;;;;;;;;5074775;28;20465;-83
2023/02/09 07:07:35;;;;;;;0.40;0.40;;;;;;;;;;5072892;28;20044;-80
2023/02/09 07:10:03;;;;;;;3.45;1.60;;;;;;;;;;5073731;28;20047;-79
2023/02/09 07:12:33;;;;;;;0.77;0.77;;;;;;;;;;5072637;28;20044;-80
2023/02/09 07:15:01;;;;;;;0.98;0.77;;;;;;;;;;5071002;28;20050;-81
2023/02/09 07:17:29;;;;;;;0.40;0.40;;;;;;;;;;5069713;28;20050;-80
2023/02/09 07:19:58;;;;;;;0.50;0.50;;;;;;;;;;5072609;28;20036;-81
2023/02/09 07:22:26;;;;;;;0.95;0.70;;;;;;;;;;5075200;28;20472;-80
2023/02/09 07:24:54;;;;;;;0.50;0.50;;;;;;;;;;5070528;28;20048;-79
2023/02/09 07:27:23;;;;;;;3.92;1.05;;;;;;;;;;5069629;28;20056;-79
2023/02/09 07:29:52;;;;;;;0.50;0.50;;;;;;;;;;5083479;28;20392;-81
2023/02/09 07:32:21;;;;;;;0.50;0.50;;;;;;;;;;5074635;28;20393;-81
2023/02/09 07:34:50;;;;;;;0.50;0.50;;;;;;;;;;5074625;28;20079;-78
2023/02/09 07:37:18;;;;;;;0.50;0.50;;;;;;;;;;5072165;28;20044;-78
2023/02/09 07:39:46;;;;;;;0.50;0.50;;;;;;;;;;5067276;28;20389;-79
2023/02/09 07:42:15;;;;;;;0.30;0.30;;;;;;;;;;5073857;28;20074;-78
2023/02/09 07:44:43;;;;;;;0.82;0.82;;;;;;;;;;5077174;28;20055;-81
2023/02/09 07:47:13;;;;;;;0.38;0.38;;;;;;;;;;5078422;28;20036;-80
2023/02/09 07:49:41;;;;;;;0.40;0.40;;;;;;;;;;5075449;28;20520;-77
2023/02/09 07:52:10;;;;;;;0.30;0.30;;;;;;;;;;5081693;28;20052;-80
2023/02/09 07:54:38;;;;;;;0.30;0.30;;;;;;;;;;5074563;28;20041;-82
2023/02/09 07:57:06;;;;;;;0.65;0.65;;;;;;;;;;5071553;28;20049;-81
2023/02/09 07:59:35;;;;;;;0.77;0.77;;;;;;;;;;5070712;28;20496;-80
2023/02/09 08:02:05;;;;;;;0.50;0.50;;;;;;;;;;5077491;28;20036;-81
2023/02/09 08:04:34;;;;;;;0.85;0.77;;;;;;;;;;5076811;28;20040;-81
2023/02/09 08:07:03;;;;;;;0.52;0.52;;;;;;;;;;5070926;28;20053;-81
2023/02/09 08:09:31;;;;;;;0.52;0.52;;;;;;;;;;5076692;28;20361;-81
2023/02/09 08:12:02;;;;;;;0.68;0.68;;;;;;;;;;5077879;28;20045;-81
2023/02/09 08:14:31;;;;;;;0.30;0.30;;;;;;;;;;5081362;28;20056;-81
2023/02/09 08:17:24;;;;;;;0.73;0.68;;;;;;;;;;5071755;28;20504;-82
2023/02/09 08:19:56;;;;;;;0.40;0.40;;;;;;;;;;5077817;28;20063;-80
2023/02/09 08:22:24;;;;;;;0.40;0.40;;;;;;;;;;5074880;28;20536;-83
2023/02/09 08:24:53;;;;;;;0.30;0.30;;;;;;;;;;5079724;28;20048;-82
2023/02/09 08:27:22;;;;;;;0.30;0.30;;;;;;;;;;5071985;28;20048;-84
2023/02/09 08:29:51;;;;;;;0.55;0.55;;;;;;;;;;5068057;28;20041;-82
2023/02/09 08:32:19;;;;;;;0.63;0.60;;;;;;;;;;5077429;28;20135;-74
2023/02/09 08:34:47;;;;;;;0.95;0.95;;;;;;;;;;5076087;28;20077;-83
2023/02/09 08:37:17;;;;;;;0.30;0.30;;;;;;;;;;5077481;28;20053;-84
2023/02/09 08:39:45;;;;;;;0.38;0.38;;;;;;;;;;5074865;28;20060;-84
2023/02/09 08:42:14;;;;;;;1.20;1.20;;;;;;;;;;5068466;28;20040;-84
2023/02/09 08:44:42;;;;;;;0.30;0.30;;;;;;;;;;5070665;28;20468;-82
2023/02/09 08:47:10;;;;;;;1.10;1.10;;;;;;;;;;5071957;28;20040;-84
2023/02/09 08:49:40;;;;;;;0.50;0.50;;;;;;;;;;5074303;28;20075;-82
2023/02/09 08:52:08;;;;;;;1.55;0.50;;;;;;;;;;5072784;28;20063;-85
2023/02/09 08:54:38;;;;;;;0.30;0.30;;;;;;;;;;5073408;28;20105;-82
2023/02/09 08:57:07;;;;;;;0.30;0.30;;;;;;;;;;5070908;28;20055;-84
2023/02/09 08:59:35;;;;;;;0.40;0.40;;;;;;;;;;5072499;28;20442;-82
2023/02/09 09:02:03;;;;;;;6.32;0.82;;;;;;;;;;5074020;28;20056;-83
2023/02/09 09:04:32;;;;;;;0.50;0.50;;;;;;;;;;5082434;28;20040;-83
2023/02/09 09:07:00;;;;;;;0.45;0.45;;;;;;;;;;5083545;28;20442;-85
2023/02/09 09:09:28;;;;;;;2.60;0.63;;;;;;;;;;5078979;28;20109;-85
2023/02/09 09:11:58;;;;;;;2.60;1.08;;;;;;;;;;5073057;28;20130;-85
2023/02/09 09:14:26;;;;;;;1.40;1.33;;;;;;;;;;5079932;28;20076;-84
2023/02/09 09:16:57;;;;;;;0.25;0.25;;;;;;;;;;5078155;28;20055;-83
2023/02/09 09:19:25;;;;;;;0.20;0.20;;;;;;;;;;5070951;28;20040;-83
2023/02/09 09:21:54;;;;;;;0.55;0.55;;;;;;;;;;5071586;28;20047;-86
2023/02/09 09:24:26;;;;;;;0.60;0.60;;;;;;;;;;5069613;28;20047;-77
2023/02/09 09:26:55;;;;;;;5.68;0.60;;;;;;;;;;5071909;28;20048;-84
2023/02/09 09:29:25;;;;;;;0.50;0.50;;;;;;;;;;5071799;28;20075;-86
2023/02/09 09:31:54;;;;;;;2.22;1.58;;;;;;;;;;5085604;28;20043;-86
2023/02/09 09:34:23;;;;;;;0.50;0.50;;;;;;;;;;5077025;28;20502;-86
2023/02/09 09:36:51;;;;;;;0.40;0.40;;;;;;;;;;5071040;28;20051;-83
2023/02/09 09:39:20;;;;;;;0.50;0.50;;;;;;;;;;5074221;28;20040;-86
2023/02/09 09:41:49;;;;;;;1.98;1.50;;;;;;;;;;5068685;28;20044;-84
2023/02/09 09:44:21;;;;;;;0.85;0.85;;;;;;;;;;5072159;28;20056;-86
2023/02/09 09:46:52;;;;;;;1.33;0.88;;;;;;;;;;5075034;28;20040;-84
2023/02/09 09:49:23;;;;;;;3.33;1.80;;;;;;;;;;5065084;28;20044;-84
2023/02/09 09:51:54;;;;;;;2.17;1.48;;;;;;;;;;5080866;28;20127;-85
2023/02/09 09:54:24;;;;;;;1.67;1.35;;;;;;;;;;5083654;28;20040;-86
2023/02/09 09:56:53;;;;;;;0.82;0.82;;;;;;;;;;5077501;28;20111;-83
2023/02/09 09:59:22;;;;;;;1.73;1.23;;;;;;;;;;5074561;28;20057;-80
2023/02/09 10:01:52;;;;;;;3.75;3.33;;;;;;;;;;5069799;28;20378;-85
2023/02/09 10:04:21;;;;;;;3.80;1.52;;;;;;;;;;5084869;28;20090;-84
2023/02/09 10:06:55;;;;;;;1.50;1.40;;;;;;;;;;5072105;28;20064;-85
2023/02/09 10:09:26;;;;;;;5.27;1.90;;;;;;;;;;5035475;28;20607;-81
2023/02/09 10:11:59;;;;;;;4.60;0.85;;;;;;;;;;5075589;28;20816;-82
2023/02/09 10:14:28;;;;;;;1.15;1.08;;;;;;;;;;5074745;28;20492;-85
2023/02/09 10:16:58;;;;;;;2.05;1.38;;;;;;;;;;5075667;28;20123;-84
2023/02/09 10:19:28;;;;;;;0.85;0.80;;;;;;;;;;5067794;28;20040;-84
2023/02/09 10:21:56;;;;;;;2.70;0.68;;;;;;;;;;5067200;28;20121;-82
2023/02/09 10:24:25;;;;;;;0.60;0.60;;;;;;;;;;5069116;28;20490;-83
2023/02/09 10:27:14;;;;;;;0.70;0.68;;;;;;;;;;5072811;28;20060;-83
2023/02/09 10:29:43;;;;;;;1.05;0.95;;;;;;;;;;5071242;28;20045;-83
2023/02/09 10:32:17;;;;;;;0.75;0.75;;;;;;;;;;5074653;28;20143;-80
2023/02/09 10:34:47;;;;;;;5.65;1.80;;;;;;;;;;5072233;28;20135;-81
2023/02/09 10:37:23;;;;;;;2.17;1.55;;;;;;;;;;5069528;28;20047;-81
2023/02/09 10:40:10;;;;;;;0.93;0.90;;;;;;;;;;5072438;28;20500;-81
2023/02/09 10:42:40;;;;;;;0.32;0.32;;;;;;;;;;5077967;28;20046;-82
2023/02/09 10:45:14;;;;;;;1.13;1.13;;;;;;;;;;5072543;28;20127;-81
2023/02/09 10:47:56;;;;;;;1.05;1.00;;;;;;;;;;5069756;28;20487;-83
2023/02/09 10:50:25;;;;;;;4.13;0.88;;;;;;;;;;5068909;28;20055;-82
2023/02/09 10:52:58;;;;;;;0.98;0.50;;;;;;;;;;5075329;28;20047;-84
2023/02/09 10:55:28;;;;;;;2.25;1.25;;;;;;;;;;5071012;28;20052;-82
2023/02/09 10:58:07;;;;;;;3.85;0.63;;;;;;;;;;5068824;28;20041;-78
2023/02/09 11:00:38;;;;;;;0.30;0.30;;;;;;;;;;5071244;28;20055;-82
2023/02/09 11:03:16;;;;;;;3.33;1.40;;;;;;;;;;5068753;28;20048;-79
2023/02/09 11:05:45;;;;;;;1.48;1.08;;;;;;;;;;5068965;28;20041;-82
2023/02/09 11:08:17;;;;;;;2.85;1.42;;;;;;;;;;5069135;28;20427;-80
2023/02/09 11:10:50;;;;;;;3.08;1.85;;;;;;;;;;5069914;28;20048;-81
2023/02/09 11:13:19;;;;;;;4.75;1.65;;;;;;;;;;5063259;28;20045;-81
2023/02/09 11:15:58;;;;;;;4.15;1.40;;;;;;;;;;5069575;28;20373;-83
2023/02/09 11:18:30;;;;;;;4.43;1.98;;;;;;;;;;5069096;28;20049;-84
2023/02/09 11:21:04;;;;;;;3.53;2.03;;;;;;;;;;5069015;28;20155;-84
2023/02/09 11:23:36;;;;;;;4.20;1.88;;;;;;;;;;5070251;28;20051;-81
2023/02/09 11:26:08;;;;;;;2.88;1.60;;;;;;;;;;5070032;28;20485;-83
2023/02/09 11:28:43;;;;;;;2.03;1.17;;;;;;;;;;5069628;28;20473;-80
2023/02/09 11:31:31;;;;;;;3.03;2.00;;;;;;;;;;5068788;28;20043;-83
2023/02/09 11:34:07;;;;;;;2.20;1.90;;;;;;;;;;5067728;28;20062;-82
2023/02/09 11:36:41;;;;;;;3.40;1.63;;;;;;;;;;5069165;28;20052;-81
2023/02/09 11:39:14;;;;;;;3.70;1.38;;;;;;;;;;5069138;28;20118;-83
2023/02/09 11:44:32;;;;;;;7.90;2.17;;;;;;;;;;5070295;28;20036;-82
2023/02/09 11:47:03;;;;;;;2.80;1.15;;;;;;;;;;5069452;28;20320;-83
2023/02/09 11:49:38;;;;;;;1.25;1.02;;;;;;;;;;5068245;28;20452;-83
2023/02/09 11:52:06;;;;;;;;;;;;;;;;;;5068141;28;20056;-84
2023/02/09 11:54:35;;;;;;;2.53;1.63;;;;;;;;;;5082077;28;19920;-82
2023/02/09 11:57:06;;;;;;;2.35;1.42;;;;;;;;;;5079371;28;20528;-85
2023/02/09 11:59:37;;;;;;;3.65;2.10;;;;;;;;;;5069991;28;20051;-82
2023/02/09 12:02:09;;;;;;;2.70;1.80;;;;;;;;;;5075368;28;20044;-83
2023/02/09 12:04:44;;;;;;;3.15;1.77;;;;;;;;;;5069867;28;20067;-82
2023/02/09 12:07:12;;;;;;;;;;;;;;;;;;5071182;28;20044;-81
2023/02/09 12:09:46;;;;;;;2.58;1.15;;;;;;;;;;5072439;28;19916;-79
2023/02/09 12:12:21;;;;;;;1.52;1.42;;;;;;;;;;5084900;28;20054;-77
2023/02/09 12:14:56;;;;;;;4.07;1.35;;;;;;;;;;5071108;28;20047;-77
2023/02/09 12:17:26;;;;;;;2.08;1.50;;;;;;;;;;5070384;28;20354;-76
2023/02/09 12:19:59;;;;;;;2.45;2.10;;;;;;;;;;5069894;28;20075;-78
2023/02/09 12:22:45;;;;;;;4.85;2.10;;;;;;;;;;5074741;28;20392;-78
2023/02/09 12:25:17;;;;;;;5.97;2.20;;;;;;;;;;5073569;28;20552;-78
2023/02/09 12:28:01;;;;;;;4.38;1.17;;;;;;;;;;5072592;28;20062;-80
2023/02/09 12:30:47;;;;;;;1.98;1.77;;;;;;;;;;5073230;28;20094;-79
2023/02/09 12:33:17;;;;;;;5.57;3.38;;;;;;;;;;5069295;28;20048;-77
2023/02/09 12:35:59;;;;;;;4.10;1.13;;;;;;;;;;5071094;28;20051;-77
2023/02/09 12:38:50;;;;;;;5.97;2.03;;;;;;;;;;5071123;28;20431;-77
2023/02/09 12:41:25;;;;;;;2.25;1.88;;;;;;;;;;5072763;28;20037;-78
2023/02/09 12:44:06;;;;;;;2.65;1.67;;;;;;;;;;5070122;28;20053;-79
2023/02/09 12:53:44;;;;;;;2.72;1.55;;;;;;;;;;5049539;28;20500;-79
2023/02/09 12:56:40;;;;;;;7.97;2.13;;;;;;;;;;5050082;28;20083;-77
2023/02/09 12:59:21;;;;;;;4.07;1.27;;;;;;;;;;5014908;28;20125;-81
2023/02/09 13:02:26;;;;;;;2.70;1.75;;;;;;;;;;5053386;28;20094;-81
2023/02/09 13:04:57;;;;;;;5.68;2.80;;;;;;;;;;5051652;28;20157;-81
2023/02/09 13:07:30;;;;;;;6.68;2.40;;;;;;;;;;5053653;28;20495;-78
2023/02/09 13:10:01;;;;;;;5.20;3.25;;;;;;;;;;5059721;28;20180;-76
2023/02/09 13:12:33;;;;;;;7.30;2.40;;;;;;;;;;5051935;28;20570;-79
2023/02/09 13:15:06;;;;;;;4.22;2.00;;;;;;;;;;5056698;28;20040;-78
2023/02/09 13:17:39;;;;;;;5.03;2.47;;;;;;;;;;5060949;28;20047;-80
2023/02/09 13:20:16;;;;;;;6.15;2.72;;;;;;;;;;5060949;28;20044;-79
2023/02/09 13:22:49;;;;;;;5.03;3.00;;;;;;;;;;5059683;28;20060;-74
2023/02/09 13:25:22;;;;;;;2.75;1.10;;;;;;;;;;5053564;28;20514;-75
2023/02/09 13:27:51;;;;;;;4.35;3.30;;;;;;;;;;5048447;28;20056;-80
2023/02/09 13:30:26;;;;;;;6.32;2.42;;;;;;;;;;5052992;28;20044;-83
2023/02/09 13:32:57;;;;;;;3.78;1.92;;;;;;;;;;5051181;28;20794;-77
2023/02/09 13:35:29;;;;;;;6.45;3.33;;;;;;;;;;5048958;28;20057;-80
2023/02/09 13:37:59;;;;;;;5.72;2.15;;;;;;;;;;5047600;28;20139;-84
2023/02/09 13:40:30;;;;;;;7.15;2.13;;;;;;;;;;5053564;28;20052;-83
2023/02/09 13:43:00;;;;;;;10.02;2.78;;;;;;;;;;5052229;28;20057;-82
2023/02/09 13:45:29;;;;;;;4.30;1.83;;;;;;;;;;5048737;28;20106;-80
2023/02/09 13:47:59;;;;;;;3.00;1.75;;;;;;;;;;5045136;28;20059;-76
2023/02/09 13:50:29;;;;;;;3.67;2.42;;;;;;;;;;5054641;28;20700;-80
2023/02/09 13:53:08;;;;;;;3.45;2.08;;;;;;;;;;5068799;28;20560;-78
2023/02/09 13:55:41;;;;;;;6.45;2.50;;;;;;;;;;5069473;28;20548;-76
2023/02/09 13:58:15;;;;;;;9.95;2.35;;;;;;;;;;5071210;28;20045;-76
2023/02/09 14:00:45;;;;;;;2.25;1.52;;;;;;;;;;5064944;28;20058;-81
2023/02/09 14:03:16;;;;;;;5.20;2.45;;;;;;;;;;5067871;28;20123;-75
2023/02/09 14:05:47;;;;;;;4.88;2.72;;;;;;;;;;5069999;28;20765;-79
2023/02/09 14:08:17;;;;;;;5.20;2.97;;;;;;;;;;5075879;28;20379;-79
2023/02/09 14:10:50;;;;;;;4.43;1.70;;;;;;;;;;5074345;28;20125;-78
2023/02/09 14:13:20;;;;;;;5.50;2.60;;;;;;;;;;5072407;28;20037;-79
2023/02/09 14:16:08;;;;;;;16.52;2.90;;;;;;;;;;5073690;28;20044;-80
2023/02/09 14:18:44;;;;;;;5.53;2.40;;;;;;;;;;5065805;28;20032;-81
2023/02/09 14:21:23;;;;;;;4.63;2.50;;;;;;;;;;5070144;28;20044;-81
2023/02/09 14:24:08;;;;;;;9.50;3.30;;;;;;;;;;5070669;28;20076;-79
2023/02/09 14:26:45;;;;;;;2.38;1.38;;;;;;;;;;5072385;28;20047;-78
2023/02/09 14:29:14;;;;;;;8.30;2.17;;;;;;;;;;5069032;28;20051;-80
2023/02/09 14:31:46;;;;;;;6.22;2.47;;;;;;;;;;5078789;28;20048;-81
2023/02/09 14:34:38;;;;;;;5.95;2.05;;;;;;;;;;5079190;28;20330;-80
2023/02/09 14:37:21;;;;;;;4.72;2.72;;;;;;;;;;5052001;28;20036;-80
2023/02/09 14:39:53;;;;;;;9.18;2.65;;;;;;;;;;5081654;28;20202;-79
2023/02/09 14:42:23;;;;;;;2.63;1.75;;;;;;;;;;5081567;28;20152;-77
2023/02/09 14:44:53;;;;;;;3.08;1.38;;;;;;;;;;5076001;28;20116;-79
2023/02/09 14:47:32;;;;;;;18.38;3.22;;;;;;;;;;5066166;28;20401;-75
2023/02/09 14:50:00;;;;;;;3.22;1.83;;;;;;;;;;5076349;28;20439;-78
2023/02/09 14:52:31;;;;;;;2.75;2.28;;;;;;;;;;5072387;28;20507;-80
2023/02/09 14:55:02;;;;;;;5.60;1.63;;;;;;;;;;5077505;28;20480;-76
2023/02/09 14:57:34;;;;;;;2.90;1.33;;;;;;;;;;5072443;28;20131;-79
2023/02/09 15:00:14;;;;;;;9.18;3.28;;;;;;;;;;5072692;28;20047;-80
2023/02/09 15:02:42;;;;;;;3.42;2.10;;;;;;;;;;5087183;28;20043;-80
2023/02/09 15:05:10;;;;;;;7.07;1.88;;;;;;;;;;5075923;28;20489;-80
2023/02/09 15:07:41;;;;;;;3.15;2.13;;;;;;;;;;5071006;28;20067;-79
2023/02/09 15:10:16;;;;;;;7.85;2.17;;;;;;;;;;5070919;28;20045;-81
2023/02/09 15:12:46;;;;;;;6.80;2.25;;;;;;;;;;5075078;28;20088;-78
2023/02/09 15:15:15;;;;;;;6.75;2.72;;;;;;;;;;5069407;28;20366;-76
2023/02/09 15:17:43;;;;;;;6.03;3.00;;;;;;;;;;5073682;28;20055;-79
2023/02/09 15:20:14;;;;;;;4.13;1.88;;;;;;;;;;5070459;28;20044;-80
2023/02/09 15:22:43;;;;;;;5.45;2.97;;;;;;;;;;5069002;28;20116;-78
2023/02/09 15:25:13;;;;;;;7.90;3.72;;;;;;;;;;5073995;28;20130;-78